Time;durP1;ratioP1;P1;durP2;ratioP2;P2;SDS_P1;SDS_P2;PMS_P1;PMS_P2;Temp;Humidity;BMP_temperature;BMP_pressure;BME280_temperature;BME280_humidity;BME280_pressure;Samples;Min_cycle;Max_cycle;Signal;HPM_P1;HPM_P2
2021/03/04 00:00:34;;;;;;;5.53;3.92;;;;;;;;;;5027105;28;20637;-51
2021/03/04 00:03:00;;;;;;;5.05;4.07;;;;;;;;;;5033927;28;20187;-51
2021/03/04 00:05:26;;;;;;;6.13;3.80;;;;;;;;;;5033294;28;20262;-51
2021/03/04 00:07:52;;;;;;;6.45;3.70;;;;;;;;;;5032715;28;20266;-51
2021/03/04 00:10:20;;;;;;;6.75;3.85;;;;;;;;;;5031990;28;20267;-51
2021/03/04 00:12:46;;;;;;;5.28;3.80;;;;;;;;;;5026177;28;20200;-51
2021/03/04 00:15:13;;;;;;;5.45;4.07;;;;;;;;;;5023733;28;20184;-52
2021/03/04 00:17:39;;;;;;;5.68;4.20;;;;;;;;;;5024706;28;20191;-51
2021/03/04 00:20:10;;;;;;;4.82;3.95;;;;;;;;;;5033711;28;20184;-51
2021/03/04 00:22:36;;;;;;;5.22;3.63;;;;;;;;;;5029905;28;20567;-51
2021/03/04 00:25:03;;;;;;;4.55;4.03;;;;;;;;;;5027799;28;20185;-51
2021/03/04 00:27:29;;;;;;;5.22;4.05;;;;;;;;;;5018379;28;20222;-51
2021/03/04 00:29:55;;;;;;;4.22;3.55;;;;;;;;;;5022238;28;20184;-52
2021/03/04 00:32:21;;;;;;;5.35;3.60;;;;;;;;;;5033288;28;20214;-52
2021/03/04 00:34:47;;;;;;;4.57;3.50;;;;;;;;;;5033404;28;20202;-52
2021/03/04 00:37:13;;;;;;;5.47;3.70;;;;;;;;;;5033635;28;20175;-52
2021/03/04 00:39:39;;;;;;;4.90;3.70;;;;;;;;;;5033768;28;20648;-52
2021/03/04 00:42:06;;;;;;;3.75;3.35;;;;;;;;;;5024143;28;20191;-52
2021/03/04 00:44:32;;;;;;;5.10;3.80;;;;;;;;;;5014459;28;20193;-51
2021/03/04 00:46:58;;;;;;;4.30;3.83;;;;;;;;;;5014167;28;20191;-51
2021/03/04 00:49:23;;;;;;;5.13;3.70;;;;;;;;;;5018473;28;20487;-51
2021/03/04 00:51:49;;;;;;;3.72;3.22;;;;;;;;;;5033779;28;20199;-52
2021/03/04 00:54:15;;;;;;;4.43;3.60;;;;;;;;;;5017240;28;20191;-52
2021/03/04 00:56:41;;;;;;;4.97;3.88;;;;;;;;;;5032398;28;20575;-52
2021/03/04 00:59:07;;;;;;;4.80;3.75;;;;;;;;;;5023634;28;20239;-52
2021/03/04 01:01:33;;;;;;;5.25;3.70;;;;;;;;;;5027013;28;20461;-52
2021/03/04 01:03:59;;;;;;;4.07;3.53;;;;;;;;;;5032594;28;20206;-52
2021/03/04 01:06:25;;;;;;;4.03;3.60;;;;;;;;;;5032776;28;20685;-52
2021/03/04 01:08:51;;;;;;;5.10;3.70;;;;;;;;;;5033345;28;20192;-51
2021/03/04 01:11:17;;;;;;;4.88;3.53;;;;;;;;;;5018609;28;20196;-52
2021/03/04 01:13:44;;;;;;;4.13;3.70;;;;;;;;;;5020383;28;20205;-52
2021/03/04 01:16:10;;;;;;;4.78;3.63;;;;;;;;;;5029004;28;20184;-52
2021/03/04 01:18:36;;;;;;;4.97;3.58;;;;;;;;;;5015257;28;20631;-52
2021/03/04 01:21:05;;;;;;;4.35;3.85;;;;;;;;;;5020308;28;20211;-52
2021/03/04 01:23:32;;;;;;;4.05;3.65;;;;;;;;;;5033366;28;20188;-52
2021/03/04 01:25:58;;;;;;;4.10;3.63;;;;;;;;;;5025850;28;20412;-52
2021/03/04 01:28:24;;;;;;;4.57;3.88;;;;;;;;;;5022631;28;20189;-52
2021/03/04 01:30:50;;;;;;;4.95;4.07;;;;;;;;;;5023200;28;20187;-52
2021/03/04 01:33:16;;;;;;;3.95;3.58;;;;;;;;;;5017891;28;20211;-52
2021/03/04 01:35:42;;;;;;;4.13;3.60;;;;;;;;;;5016415;28;20458;-52
2021/03/04 01:38:08;;;;;;;4.22;3.70;;;;;;;;;;5017182;28;20270;-51
2021/03/04 01:40:34;;;;;;;3.25;3.05;;;;;;;;;;5017045;28;20221;-51
2021/03/04 01:43:00;;;;;;;4.97;4.07;;;;;;;;;;5019383;28;20755;-51
2021/03/04 01:45:26;;;;;;;3.60;3.28;;;;;;;;;;5021468;28;20188;-51
2021/03/04 01:47:54;;;;;;;4.22;3.50;;;;;;;;;;5017028;28;20222;-51
2021/03/04 01:50:20;;;;;;;4.38;3.72;;;;;;;;;;5035286;28;20501;-51
2021/03/04 01:52:47;;;;;;;4.10;3.70;;;;;;;;;;5035587;28;20306;-51
2021/03/04 01:55:14;;;;;;;3.63;3.17;;;;;;;;;;5033728;28;20269;-51
2021/03/04 01:57:41;;;;;;;3.83;3.35;;;;;;;;;;5028519;28;20307;-51
2021/03/04 02:00:08;;;;;;;4.65;3.83;;;;;;;;;;5024776;28;20522;-51
2021/03/04 02:02:34;;;;;;;4.13;3.72;;;;;;;;;;5035566;28;20459;-52
2021/03/04 02:05:00;;;;;;;3.80;3.50;;;;;;;;;;5035808;28;20184;-52
2021/03/04 02:07:45;;;;;;;4.15;3.67;;;;;;;;;;5029591;28;20242;-51
2021/03/04 02:10:29;;;;;;;4.78;3.75;;;;;;;;;;5035587;28;20189;-51
2021/03/04 02:13:14;;;;;;;3.58;3.28;;;;;;;;;;5017731;28;20204;-51
2021/03/04 02:15:51;;;;;;;4.18;3.60;;;;;;;;;;5022513;28;20203;-51
2021/03/04 02:18:17;;;;;;;5.38;3.58;;;;;;;;;;5020200;28;20181;-52
2021/03/04 02:20:54;;;;;;;3.35;3.05;;;;;;;;;;5028871;28;20237;-51
2021/03/04 02:23:39;;;;;;;4.30;3.40;;;;;;;;;;5019130;28;20187;-51
2021/03/04 02:26:18;;;;;;;4.35;3.35;;;;;;;;;;5027116;28;20474;-51
2021/03/04 02:28:47;;;;;;;4.28;3.00;;;;;;;;;;5022907;28;20192;-51
2021/03/04 02:31:13;;;;;;;4.90;3.70;;;;;;;;;;5032412;28;20500;-51
2021/03/04 02:33:39;;;;;;;4.43;3.65;;;;;;;;;;5016857;28;20417;-51
2021/03/04 02:36:06;;;;;;;3.47;3.17;;;;;;;;;;5015084;28;20205;-51
2021/03/04 02:38:32;;;;;;;6.68;3.60;;;;;;;;;;5031757;28;20184;-51
2021/03/04 02:40:59;;;;;;;5.15;3.55;;;;;;;;;;5019530;28;20176;-52
2021/03/04 02:43:26;;;;;;;4.15;3.33;;;;;;;;;;5024523;28;20218;-52
2021/03/04 02:45:53;;;;;;;3.72;3.33;;;;;;;;;;5020849;28;20621;-52
2021/03/04 02:48:21;;;;;;;5.38;3.20;;;;;;;;;;5025309;28;20235;-51
2021/03/04 02:50:48;;;;;;;3.65;3.35;;;;;;;;;;5033309;28;20283;-51
2021/03/04 02:53:14;;;;;;;4.22;3.67;;;;;;;;;;5034173;28;20219;-51
2021/03/04 02:55:40;;;;;;;4.07;3.42;;;;;;;;;;5030385;28;20756;-51
2021/03/04 02:58:10;;;;;;;3.30;3.00;;;;;;;;;;5024576;28;20181;-51
2021/03/04 03:00:37;;;;;;;3.40;3.10;;;;;;;;;;5023590;28;20495;-51
2021/03/04 03:03:06;;;;;;;3.60;3.30;;;;;;;;;;5022151;28;20193;-51
2021/03/04 03:05:34;;;;;;;4.30;3.47;;;;;;;;;;5015210;28;20206;-51
2021/03/04 03:08:00;;;;;;;3.35;3.10;;;;;;;;;;5022014;28;20207;-51
2021/03/04 03:10:27;;;;;;;3.38;3.08;;;;;;;;;;5014918;28;20185;-52
2021/03/04 03:12:53;;;;;;;3.65;3.35;;;;;;;;;;5022382;28;20262;-52
2021/03/04 03:15:20;;;;;;;5.30;3.35;;;;;;;;;;5023752;28;20183;-52
2021/03/04 03:17:47;;;;;;;3.13;2.92;;;;;;;;;;5028305;28;20176;-52
2021/03/04 03:20:16;;;;;;;3.70;3.10;;;;;;;;;;5034446;28;20176;-51
2021/03/04 03:22:42;;;;;;;4.07;3.50;;;;;;;;;;5021140;28;20223;-51
2021/03/04 03:25:08;;;;;;;4.07;3.72;;;;;;;;;;5015629;28;20184;-51
2021/03/04 03:27:35;;;;;;;3.47;3.15;;;;;;;;;;5031064;28;20188;-51
2021/03/04 03:30:01;;;;;;;4.90;3.30;;;;;;;;;;5019636;28;20183;-51
2021/03/04 03:32:30;;;;;;;3.47;3.17;;;;;;;;;;5034533;28;20222;-51
2021/03/04 03:34:56;;;;;;;3.92;3.10;;;;;;;;;;5034306;28;20235;-51
2021/03/04 03:37:23;;;;;;;3.83;3.17;;;;;;;;;;5023179;28;20177;-51
2021/03/04 03:39:50;;;;;;;4.07;3.28;;;;;;;;;;5017396;28;20213;-51
2021/03/04 03:42:17;;;;;;;3.08;2.78;;;;;;;;;;5014302;28;20500;-51
2021/03/04 03:44:43;;;;;;;3.90;3.50;;;;;;;;;;5021117;28;20514;-51
2021/03/04 03:47:09;;;;;;;3.55;3.15;;;;;;;;;;5025711;28;20365;-51
2021/03/04 03:49:37;;;;;;;3.42;2.88;;;;;;;;;;5033980;28;20219;-52
2021/03/04 03:52:05;;;;;;;3.33;3.03;;;;;;;;;;5025088;28;20250;-52
2021/03/04 03:54:31;;;;;;;3.67;3.28;;;;;;;;;;5013966;28;20180;-52
2021/03/04 03:56:57;;;;;;;3.45;3.20;;;;;;;;;;5023600;28;20184;-51
2021/03/04 03:59:24;;;;;;;3.25;2.95;;;;;;;;;;5024221;28;20180;-51
2021/03/04 04:01:50;;;;;;;3.60;3.30;;;;;;;;;;5014797;28;20208;-51
2021/03/04 04:04:16;;;;;;;3.40;3.10;;;;;;;;;;5013855;28;20184;-51
2021/03/04 04:06:44;;;;;;;4.53;3.05;;;;;;;;;;5015142;28;20203;-51
2021/03/04 04:09:10;;;;;;;3.70;3.25;;;;;;;;;;5015875;28;20184;-51
2021/03/04 04:11:36;;;;;;;3.40;3.10;;;;;;;;;;5033321;28;20183;-51
2021/03/04 04:14:03;;;;;;;3.50;3.20;;;;;;;;;;5024693;28;20215;-51
2021/03/04 04:16:29;;;;;;;3.22;2.92;;;;;;;;;;5028704;28;20190;-51
2021/03/04 04:18:58;;;;;;;3.20;3.00;;;;;;;;;;5034125;28;20192;-51
2021/03/04 04:21:25;;;;;;;4.75;3.03;;;;;;;;;;5033297;28;20190;-52
2021/03/04 04:23:51;;;;;;;3.33;3.03;;;;;;;;;;5033848;28;20192;-52
2021/03/04 04:26:18;;;;;;;3.63;3.28;;;;;;;;;;5030166;28;20172;-51
2021/03/04 04:28:44;;;;;;;3.55;3.25;;;;;;;;;;5017676;28;20186;-51
2021/03/04 04:31:10;;;;;;;3.55;3.05;;;;;;;;;;5027301;28;20234;-51
2021/03/04 04:33:36;;;;;;;3.70;3.40;;;;;;;;;;5026194;28;20250;-51
2021/03/04 04:36:02;;;;;;;3.05;2.75;;;;;;;;;;5014900;28;20185;-51
2021/03/04 04:38:28;;;;;;;4.35;3.20;;;;;;;;;;5032536;28;20176;-51
2021/03/04 04:40:54;;;;;;;3.28;2.97;;;;;;;;;;5014477;28;20195;-51
2021/03/04 04:43:20;;;;;;;3.30;3.00;;;;;;;;;;5023859;28;20187;-51
2021/03/04 04:45:46;;;;;;;3.50;3.20;;;;;;;;;;5020449;28;20199;-51
2021/03/04 04:48:12;;;;;;;3.50;3.20;;;;;;;;;;5013604;28;20188;-52
2021/03/04 04:50:39;;;;;;;3.22;2.92;;;;;;;;;;5028675;28;20183;-51
2021/03/04 04:53:04;;;;;;;4.32;3.92;;;;;;;;;;5033415;28;20437;-51
2021/03/04 04:55:31;;;;;;;3.58;3.28;;;;;;;;;;5025341;28;20582;-51
2021/03/04 04:57:57;;;;;;;4.30;3.13;;;;;;;;;;5032993;28;20276;-51
2021/03/04 05:00:23;;;;;;;3.35;3.05;;;;;;;;;;5027155;28;20566;-51
2021/03/04 05:02:49;;;;;;;3.72;3.40;;;;;;;;;;5037340;28;20186;-51
2021/03/04 05:05:15;;;;;;;4.05;3.38;;;;;;;;;;5022654;28;20180;-51
2021/03/04 05:07:41;;;;;;;5.00;3.72;;;;;;;;;;5022246;28;20585;-51
2021/03/04 05:10:08;;;;;;;3.70;3.40;;;;;;;;;;5036308;28;20183;-51
2021/03/04 05:12:35;;;;;;;3.97;3.40;;;;;;;;;;5026023;28;20250;-51
2021/03/04 05:15:01;;;;;;;3.88;3.40;;;;;;;;;;5028628;28;20180;-51
2021/03/04 05:17:27;;;;;;;3.53;3.22;;;;;;;;;;5025487;28;20183;-51
2021/03/04 05:19:53;;;;;;;3.40;3.10;;;;;;;;;;5017454;28;20599;-51
2021/03/04 05:22:19;;;;;;;3.92;3.33;;;;;;;;;;5028411;28;20246;-51
2021/03/04 05:24:45;;;;;;;4.00;3.55;;;;;;;;;;5036861;28;20184;-51
2021/03/04 05:27:11;;;;;;;3.63;3.25;;;;;;;;;;5025153;28;20192;-51
2021/03/04 05:29:37;;;;;;;3.22;2.92;;;;;;;;;;5030054;28;20184;-52
2021/03/04 05:32:03;;;;;;;3.90;3.42;;;;;;;;;;5035504;28;20222;-51
2021/03/04 05:34:29;;;;;;;4.15;3.25;;;;;;;;;;5022959;28;20780;-51
2021/03/04 05:36:55;;;;;;;3.50;3.20;;;;;;;;;;5028026;28;20271;-51
2021/03/04 05:39:21;;;;;;;3.83;3.20;;;;;;;;;;5016884;28;20475;-51
2021/03/04 05:41:47;;;;;;;3.78;3.40;;;;;;;;;;5025250;28;20265;-52
2021/03/04 05:44:14;;;;;;;3.40;3.10;;;;;;;;;;5023292;28;20530;-52
2021/03/04 05:46:40;;;;;;;3.67;3.38;;;;;;;;;;5027699;28;20184;-52
2021/03/04 05:49:11;;;;;;;3.42;3.10;;;;;;;;;;5025168;28;20279;-51
2021/03/04 05:51:37;;;;;;;3.58;3.25;;;;;;;;;;5028819;28;20203;-51
2021/03/04 05:54:06;;;;;;;4.47;3.72;;;;;;;;;;5015847;28;20196;-51
2021/03/04 05:56:35;;;;;;;4.65;2.92;;;;;;;;;;5030439;28;20182;-51
2021/03/04 05:59:01;;;;;;;3.33;3.10;;;;;;;;;;5026716;28;20188;-52
2021/03/04 06:01:28;;;;;;;4.13;3.58;;;;;;;;;;5018608;28;20610;-52
2021/03/04 06:03:54;;;;;;;3.80;3.22;;;;;;;;;;5023025;28;20192;-50
2021/03/04 06:06:20;;;;;;;3.67;3.22;;;;;;;;;;5022690;28;20271;-51
2021/03/04 06:08:46;;;;;;;10.65;4.03;;;;;;;;;;5022397;28;20286;-51
2021/03/04 06:11:12;;;;;;;7.55;3.92;;;;;;;;;;5028286;28;20298;-51
2021/03/04 06:13:38;;;;;;;10.23;4.50;;;;;;;;;;5026697;28;20707;-51
2021/03/04 06:16:05;;;;;;;6.85;3.95;;;;;;;;;;5025563;28;20262;-51
2021/03/04 06:18:38;;;;;;;7.45;4.28;;;;;;;;;;5020569;28;20434;-51
2021/03/04 06:21:04;;;;;;;6.18;4.10;;;;;;;;;;5018775;28;20475;-51
2021/03/04 06:23:31;;;;;;;8.43;4.05;;;;;;;;;;5026485;28;20180;-51
2021/03/04 06:25:57;;;;;;;9.55;4.40;;;;;;;;;;5021651;28;20184;-51
2021/03/04 06:28:31;;;;;;;5.28;3.70;;;;;;;;;;5015591;28;20196;-51
2021/03/04 06:30:57;;;;;;;9.43;4.18;;;;;;;;;;5029604;28;20221;-51
2021/03/04 06:33:23;;;;;;;7.28;4.00;;;;;;;;;;5014400;28;20262;-52
2021/03/04 06:35:50;;;;;;;4.82;4.03;;;;;;;;;;5025041;28;20298;-52
2021/03/04 06:38:16;;;;;;;6.13;4.30;;;;;;;;;;5030616;28;20583;-51
2021/03/04 06:40:43;;;;;;;6.28;3.92;;;;;;;;;;5019026;28;20570;-51
2021/03/04 06:43:17;;;;;;;7.70;4.30;;;;;;;;;;5032995;28;20274;-51
2021/03/04 06:45:43;;;;;;;5.18;3.63;;;;;;;;;;5022754;28;20455;-52
2021/03/04 06:48:09;;;;;;;5.35;3.65;;;;;;;;;;5016325;28;20295;-51
2021/03/04 06:50:36;;;;;;;5.85;4.28;;;;;;;;;;5021024;28;20258;-52
2021/03/04 06:53:12;;;;;;;6.38;4.00;;;;;;;;;;5028986;28;20203;-51
2021/03/04 06:55:48;;;;;;;6.88;3.78;;;;;;;;;;5029523;28;20644;-51
2021/03/04 06:58:14;;;;;;;9.50;4.18;;;;;;;;;;5028383;28;20239;-51
2021/03/04 07:00:40;;;;;;;5.65;4.15;;;;;;;;;;5028148;28;20619;-51
2021/03/04 07:03:06;;;;;;;7.80;3.88;;;;;;;;;;5015415;28;20267;-51
2021/03/04 07:05:32;;;;;;;5.97;3.80;;;;;;;;;;5024803;28;20172;-51
2021/03/04 07:07:58;;;;;;;4.82;4.10;;;;;;;;;;5021872;28;20464;-51
2021/03/04 07:10:26;;;;;;;8.00;4.40;;;;;;;;;;5019298;28;20273;-51
2021/03/04 07:12:53;;;;;;;5.28;3.70;;;;;;;;;;5020366;28;20207;-51
2021/03/04 07:15:19;;;;;;;5.53;3.90;;;;;;;;;;5021534;28;20203;-51
2021/03/04 07:17:49;;;;;;;5.30;4.00;;;;;;;;;;5022973;28;20310;-51
2021/03/04 07:20:17;;;;;;;5.68;3.90;;;;;;;;;;5018271;28;20191;-51
2021/03/04 07:22:49;;;;;;;5.72;4.00;;;;;;;;;;5027534;28;20264;-51
2021/03/04 07:25:16;;;;;;;6.28;4.15;;;;;;;;;;5014425;28;20242;-51
2021/03/04 07:27:43;;;;;;;6.20;4.10;;;;;;;;;;5027769;28;20266;-51
2021/03/04 07:30:09;;;;;;;6.07;4.00;;;;;;;;;;5029832;28;20184;-51
2021/03/04 07:32:35;;;;;;;4.80;3.60;;;;;;;;;;5020387;28;20211;-51
2021/03/04 07:35:03;;;;;;;5.35;3.92;;;;;;;;;;5032056;28;20198;-51
2021/03/04 07:37:29;;;;;;;6.18;3.97;;;;;;;;;;5017284;28;20623;-52
2021/03/04 07:39:59;;;;;;;6.90;4.18;;;;;;;;;;5016378;28;20267;-52
2021/03/04 07:42:26;;;;;;;4.68;3.88;;;;;;;;;;5030772;28;20207;-52
2021/03/04 07:44:52;;;;;;;5.45;3.83;;;;;;;;;;5024379;28;20180;-52
2021/03/04 07:47:25;;;;;;;4.80;3.78;;;;;;;;;;5030820;28;20184;-51
2021/03/04 07:49:52;;;;;;;6.05;3.72;;;;;;;;;;5017945;28;20203;-52
2021/03/04 07:52:19;;;;;;;5.18;3.60;;;;;;;;;;5026843;28;20270;-51
2021/03/04 07:54:51;;;;;;;5.22;3.45;;;;;;;;;;5033791;28;20179;-51
2021/03/04 07:57:18;;;;;;;5.10;3.80;;;;;;;;;;5027126;28;22063;-51
2021/03/04 07:59:54;;;;;;;5.63;4.00;;;;;;;;;;5027210;28;20199;-51
2021/03/04 08:02:26;;;;;;;5.50;4.22;;;;;;;;;;5022885;28;20186;-52
2021/03/04 08:04:53;;;;;;;5.28;3.97;;;;;;;;;;5021662;28;20180;-52
2021/03/04 08:07:26;;;;;;;5.32;3.78;;;;;;;;;;5033244;28;20176;-52
2021/03/04 08:09:52;;;;;;;3.83;3.45;;;;;;;;;;5026740;28;20180;-52
2021/03/04 08:12:19;;;;;;;5.35;3.97;;;;;;;;;;5033021;28;20613;-52
2021/03/04 08:14:55;;;;;;;5.95;4.20;;;;;;;;;;5033456;28;20761;-52
2021/03/04 08:17:21;;;;;;;6.40;4.03;;;;;;;;;;5025494;28;20255;-50
2021/03/04 08:19:47;;;;;;;5.00;3.97;;;;;;;;;;5015641;28;20172;-50
2021/03/04 08:22:17;;;;;;;5.05;3.53;;;;;;;;;;5013828;28;20583;-50
2021/03/04 08:24:43;;;;;;;4.55;3.70;;;;;;;;;;5013700;28;20570;-51
2021/03/04 08:27:09;;;;;;;5.03;3.75;;;;;;;;;;5013914;28;20715;-51
2021/03/04 08:29:45;;;;;;;7.55;3.67;;;;;;;;;;5017830;28;20559;-52
2021/03/04 08:32:12;;;;;;;47.05;22.90;;;;;;;;;;5036845;28;20745;-50
2021/03/04 08:34:39;;;;;;;465.52;223.27;;;;;;;;;;5036024;28;20479;-50
2021/03/04 08:37:21;;;;;;;448.55;203.10;;;;;;;;;;5037078;28;20183;-50
2021/03/04 08:39:47;;;;;;;385.25;163.52;;;;;;;;;;5029594;28;20176;-50
2021/03/04 08:42:12;;;;;;;339.67;139.50;;;;;;;;;;5032698;28;20587;-52
2021/03/04 08:44:46;;;;;;;300.60;121.68;;;;;;;;;;5030293;28;20185;-52
2021/03/04 08:47:14;;;;;;;245.85;104.70;;;;;;;;;;5032748;28;20171;-52
2021/03/04 08:49:40;;;;;;;211.02;87.20;;;;;;;;;;5035664;28;20187;-51
2021/03/04 08:52:06;;;;;;;182.07;77.47;;;;;;;;;;5023053;28;20190;-51
2021/03/04 08:54:33;;;;;;;163.55;70.32;;;;;;;;;;5026578;28;20313;-51
2021/03/04 08:57:03;;;;;;;142.93;62.40;;;;;;;;;;5035826;28;20203;-50
2021/03/04 08:59:29;;;;;;;126.63;54.38;;;;;;;;;;5030294;28;20223;-50
2021/03/04 09:01:55;;;;;;;116.65;52.22;;;;;;;;;;5033335;28;20279;-50
2021/03/04 09:04:22;;;;;;;122.90;53.35;;;;;;;;;;5032194;28;20203;-50
2021/03/04 09:06:48;;;;;;;113.28;49.17;;;;;;;;;;5028645;28;20196;-51
2021/03/04 09:09:27;;;;;;;108.35;46.08;;;;;;;;;;5036832;28;20543;-51
2021/03/04 09:11:54;;;;;;;97.03;44.38;;;;;;;;;;5017501;28;20563;-52
2021/03/04 09:14:25;;;;;;;98.40;44.70;;;;;;;;;;5016690;28;20259;-52
2021/03/04 09:16:51;;;;;;;92.75;42.38;;;;;;;;;;5021272;28;20200;-52
2021/03/04 09:19:24;;;;;;;92.70;41.88;;;;;;;;;;5036790;28;20179;-51
2021/03/04 09:21:50;;;;;;;86.05;40.90;;;;;;;;;;5036696;28;20188;-52
2021/03/04 09:24:16;;;;;;;89.60;39.92;;;;;;;;;;5027888;28;20195;-52
2021/03/04 09:26:43;;;;;;;77.32;36.20;;;;;;;;;;5020644;28;20543;-52
2021/03/04 09:29:09;;;;;;;78.03;36.95;;;;;;;;;;5025996;28;20283;-50
2021/03/04 09:31:35;;;;;;;68.03;34.70;;;;;;;;;;5018295;28;20622;-50
2021/03/04 09:34:03;;;;;;;67.10;34.30;;;;;;;;;;5017356;28;20204;-51
2021/03/04 09:36:29;;;;;;;68.88;33.83;;;;;;;;;;5016270;28;20177;-51
2021/03/04 09:38:57;;;;;;;65.45;30.88;;;;;;;;;;5030961;28;20191;-51
2021/03/04 09:41:23;;;;;;;60.72;30.60;;;;;;;;;;5016276;28;20731;-51
2021/03/04 09:44:05;;;;;;;60.05;30.40;;;;;;;;;;5024532;28;20559;-51
2021/03/04 09:46:38;;;;;;;57.95;29.08;;;;;;;;;;5029346;28;20188;-52
2021/03/04 09:49:07;;;;;;;54.95;29.27;;;;;;;;;;5020885;28;20222;-52
2021/03/04 09:51:33;;;;;;;51.60;27.02;;;;;;;;;;5032361;28;20195;-52
2021/03/04 09:54:00;;;;;;;52.35;27.30;;;;;;;;;;5033828;28;20196;-50
2021/03/04 09:56:26;;;;;;;51.80;26.65;;;;;;;;;;5033189;28;20215;-51
2021/03/04 09:58:52;;;;;;;49.50;26.02;;;;;;;;;;5020134;28;20190;-51
2021/03/04 10:01:32;;;;;;;47.45;24.52;;;;;;;;;;5026103;28;20219;-51
2021/03/04 10:04:02;;;;;;;46.35;25.77;;;;;;;;;;5020589;28;20220;-51
2021/03/04 10:06:32;;;;;;;45.22;23.30;;;;;;;;;;5030036;28;20222;-51
2021/03/04 10:08:57;;;;;;;44.60;24.20;;;;;;;;;;5033218;28;20573;-52
2021/03/04 10:11:24;;;;;;;41.75;23.70;;;;;;;;;;5034607;28;20180;-52
2021/03/04 10:13:51;;;;;;;44.58;22.63;;;;;;;;;;5020635;28;20283;-52
2021/03/04 10:16:17;;;;;;;35.35;20.73;;;;;;;;;;5015302;28;20188;-52
2021/03/04 10:18:47;;;;;;;34.05;20.02;;;;;;;;;;5028521;28;20199;-52
2021/03/04 10:21:15;;;;;;;38.20;20.75;;;;;;;;;;5024261;28;20226;-51
2021/03/04 10:23:41;;;;;;;38.25;20.73;;;;;;;;;;5029333;28;20187;-51
2021/03/04 10:26:07;;;;;;;30.83;18.83;;;;;;;;;;5020739;28;20458;-51
2021/03/04 10:28:33;;;;;;;33.10;18.77;;;;;;;;;;5016282;28;20461;-51
2021/03/04 10:30:59;;;;;;;34.83;18.73;;;;;;;;;;5016108;28;20219;-51
2021/03/04 10:33:25;;;;;;;31.88;18.15;;;;;;;;;;5015499;28;20215;-51
2021/03/04 10:35:51;;;;;;;37.60;18.23;;;;;;;;;;5020678;28;20200;-51
2021/03/04 10:38:17;;;;;;;31.05;17.23;;;;;;;;;;5022142;28;20188;-51
2021/03/04 10:40:43;;;;;;;31.10;16.20;;;;;;;;;;5018628;28;20192;-51
2021/03/04 10:43:09;;;;;;;29.95;16.90;;;;;;;;;;5028812;28;20486;-51
2021/03/04 10:45:35;;;;;;;28.73;17.38;;;;;;;;;;5021077;28;20192;-51
2021/03/04 10:48:01;;;;;;;28.88;16.52;;;;;;;;;;5024883;28;20188;-51
2021/03/04 10:50:28;;;;;;;23.75;14.40;;;;;;;;;;5029636;28;20199;-52
2021/03/04 10:52:54;;;;;;;25.63;14.68;;;;;;;;;;5025698;28;20650;-52
2021/03/04 10:55:20;;;;;;;25.55;14.55;;;;;;;;;;5014569;28;20271;-52
2021/03/04 10:57:46;;;;;;;27.00;15.35;;;;;;;;;;5017226;28;20191;-52
2021/03/04 11:00:13;;;;;;;24.75;14.63;;;;;;;;;;5021909;28;20188;-52
2021/03/04 11:02:40;;;;;;;22.77;14.55;;;;;;;;;;5015530;28;20180;-52
2021/03/04 11:05:07;;;;;;;19.98;13.77;;;;;;;;;;5024830;28;20567;-52
2021/03/04 11:07:33;;;;;;;24.77;14.63;;;;;;;;;;5034745;28;20258;-52
2021/03/04 11:09:59;;;;;;;24.88;14.35;;;;;;;;;;5034301;28;20187;-52
2021/03/04 11:12:25;;;;;;;22.75;13.90;;;;;;;;;;5024923;28;20200;-52
2021/03/04 11:14:51;;;;;;;21.75;14.25;;;;;;;;;;5018385;28;20267;-52
2021/03/04 11:17:17;;;;;;;21.55;13.18;;;;;;;;;;5022189;28;20251;-52
2021/03/04 11:19:43;;;;;;;19.88;13.48;;;;;;;;;;5034854;28;20176;-52
2021/03/04 11:22:10;;;;;;;19.17;12.75;;;;;;;;;;5034158;28;20184;-48
2021/03/04 11:24:36;;;;;;;23.17;14.82;;;;;;;;;;5022480;28;20184;-49
2021/03/04 11:27:03;;;;;;;23.67;13.85;;;;;;;;;;5025742;28;20199;-48
2021/03/04 11:29:29;;;;;;;19.40;13.85;;;;;;;;;;5030596;28;20184;-48
2021/03/04 11:31:55;;;;;;;22.17;12.48;;;;;;;;;;5020652;28;20181;-49
2021/03/04 11:34:21;;;;;;;19.63;13.30;;;;;;;;;;5014843;28;20464;-49
2021/03/04 11:36:47;;;;;;;19.52;12.93;;;;;;;;;;5032952;28;20175;-58
2021/03/04 11:39:13;;;;;;;26.80;15.23;;;;;;;;;;5018833;28;20185;-50
2021/03/04 11:41:39;;;;;;;20.80;13.68;;;;;;;;;;5031091;28;20811;-51
2021/03/04 11:44:06;;;;;;;19.70;13.55;;;;;;;;;;5017057;28;20238;-48
2021/03/04 11:46:32;;;;;;;20.10;12.73;;;;;;;;;;5023712;28;20318;-48
2021/03/04 11:48:58;;;;;;;19.58;12.13;;;;;;;;;;5015505;28;20192;-48
2021/03/04 11:51:25;;;;;;;17.48;10.20;;;;;;;;;;5014596;28;20172;-56
2021/03/04 11:53:51;;;;;;;16.95;9.82;;;;;;;;;;5017027;28;20207;-55
2021/03/04 11:56:17;;;;;;;16.00;8.73;;;;;;;;;;5031775;28;20270;-52
2021/03/04 11:58:43;;;;;;;13.15;8.43;;;;;;;;;;5031007;28;20208;-55
2021/03/04 12:01:09;;;;;;;11.82;8.32;;;;;;;;;;5022918;28;20222;-48
2021/03/04 12:03:35;;;;;;;10.65;7.40;;;;;;;;;;5033705;28;20180;-50
2021/03/04 12:06:00;;;;;;;10.95;7.88;;;;;;;;;;5033380;28;20571;-49
2021/03/04 12:08:26;;;;;;;13.05;7.25;;;;;;;;;;5028898;28;20184;-52
2021/03/04 12:10:53;;;;;;;9.90;7.55;;;;;;;;;;5033239;28;20251;-52
2021/03/04 12:13:19;;;;;;;17.50;7.10;;;;;;;;;;5019715;28;20202;-52
2021/03/04 12:15:45;;;;;;;13.38;6.88;;;;;;;;;;5025843;28;20289;-53
2021/03/04 12:18:11;;;;;;;9.63;6.40;;;;;;;;;;5019011;28;20181;-49
2021/03/04 12:20:38;;;;;;;8.95;5.63;;;;;;;;;;5016043;28;20793;-49
2021/03/04 12:23:06;;;;;;;11.80;6.82;;;;;;;;;;5022874;28;20213;-43
2021/03/04 12:25:32;;;;;;;9.43;6.13;;;;;;;;;;5030159;28;20696;-48
2021/03/04 12:27:59;;;;;;;26.55;9.32;;;;;;;;;;5026790;28;20203;-48
2021/03/04 12:30:26;;;;;;;17.35;8.35;;;;;;;;;;5018564;28;20184;-48
2021/03/04 12:32:53;;;;;;;17.02;7.63;;;;;;;;;;5013173;28;20208;-49
2021/03/04 12:35:21;;;;;;;21.25;7.93;;;;;;;;;;5012237;28;20207;-47
2021/03/04 12:37:50;;;;;;;15.35;6.95;;;;;;;;;;5026353;28;20475;-49
2021/03/04 12:40:16;;;;;;;18.33;8.25;;;;;;;;;;5014728;28;20184;-49
2021/03/04 12:42:42;;;;;;;20.98;7.55;;;;;;;;;;5018163;28;20590;-49
2021/03/04 12:45:09;;;;;;;18.42;6.97;;;;;;;;;;5017412;28;20192;-49
2021/03/04 12:47:35;;;;;;;17.13;6.63;;;;;;;;;;5018154;28;20231;-49
2021/03/04 12:50:02;;;;;;;19.67;7.30;;;;;;;;;;5015260;28;20233;-47
2021/03/04 12:52:29;;;;;;;11.48;6.15;;;;;;;;;;5031810;28;20522;-48
2021/03/04 12:54:56;;;;;;;17.15;6.40;;;;;;;;;;5030450;28;20203;-46
2021/03/04 12:57:22;;;;;;;13.57;6.50;;;;;;;;;;5029755;28;20191;-46
2021/03/04 12:59:50;;;;;;;17.67;6.38;;;;;;;;;;5032150;28;20186;-46
2021/03/04 13:02:16;;;;;;;13.57;6.55;;;;;;;;;;5032215;28;20628;-45
2021/03/04 13:04:43;;;;;;;17.42;6.70;;;;;;;;;;5032821;28;20215;-45
2021/03/04 13:07:10;;;;;;;17.58;6.57;;;;;;;;;;5031234;28;20195;-48
2021/03/04 13:09:36;;;;;;;16.58;6.70;;;;;;;;;;5025154;28;20212;-49
2021/03/04 13:12:02;;;;;;;12.77;6.85;;;;;;;;;;5013432;28;20188;-49
2021/03/04 13:14:28;;;;;;;19.70;7.90;;;;;;;;;;5020609;28;20249;-50
2021/03/04 13:16:55;;;;;;;15.18;8.10;;;;;;;;;;5032656;28;20183;-50
2021/03/04 13:19:21;;;;;;;17.27;6.97;;;;;;;;;;5034593;28;20195;-50
2021/03/04 13:21:47;;;;;;;12.48;6.80;;;;;;;;;;5020865;28;20172;-51
2021/03/04 13:24:12;;;;;;;17.90;6.85;;;;;;;;;;5036184;28;20180;-51
2021/03/04 13:26:38;;;;;;;17.65;7.28;;;;;;;;;;5036804;28;20690;-51
2021/03/04 13:29:04;;;;;;;29.27;8.15;;;;;;;;;;5036349;28;20180;-51
2021/03/04 13:31:30;;;;;;;39.13;9.43;;;;;;;;;;5021409;28;20188;-51
2021/03/04 13:33:56;;;;;;;29.75;8.85;;;;;;;;;;5016547;28;20207;-51
2021/03/04 13:36:22;;;;;;;48.28;10.43;;;;;;;;;;5016071;28;20176;-51
2021/03/04 13:38:48;;;;;;;28.80;9.40;;;;;;;;;;5016737;28;20545;-51
2021/03/04 13:41:14;;;;;;;41.45;8.38;;;;;;;;;;5024622;28;20185;-51
2021/03/04 13:43:42;;;;;;;34.58;9.15;;;;;;;;;;5026911;28;20563;-51
2021/03/04 13:46:08;;;;;;;26.20;8.70;;;;;;;;;;5023606;28;20191;-50
2021/03/04 13:48:34;;;;;;;21.70;7.80;;;;;;;;;;5035360;28;20199;-50
2021/03/04 13:51:00;;;;;;;22.27;7.57;;;;;;;;;;5035612;28;20180;-50
2021/03/04 13:53:26;;;;;;;20.30;6.68;;;;;;;;;;5027366;28;20204;-50
2021/03/04 13:55:52;;;;;;;23.00;7.47;;;;;;;;;;5032408;28;20559;-50
2021/03/04 13:58:18;;;;;;;24.70;7.63;;;;;;;;;;5016315;28;20516;-50
2021/03/04 14:00:44;;;;;;;24.80;7.43;;;;;;;;;;5021062;28;20436;-50
2021/03/04 14:03:11;;;;;;;23.52;7.82;;;;;;;;;;5017973;28;20279;-50
2021/03/04 14:05:37;;;;;;;20.42;7.68;;;;;;;;;;5024743;28;20601;-50
2021/03/04 14:08:03;;;;;;;19.73;7.93;;;;;;;;;;5029449;28;20199;-51
2021/03/04 14:10:30;;;;;;;17.38;8.00;;;;;;;;;;5020775;28;20199;-51
2021/03/04 14:12:56;;;;;;;19.90;7.90;;;;;;;;;;5031928;28;20212;-51
2021/03/04 14:15:22;;;;;;;16.20;7.43;;;;;;;;;;5028338;28;20768;-50
2021/03/04 14:17:48;;;;;;;19.30;7.35;;;;;;;;;;5022023;28;20199;-50
2021/03/04 14:20:14;;;;;;;19.40;6.88;;;;;;;;;;5035086;28;20621;-50
2021/03/04 14:22:44;;;;;;;18.63;6.93;;;;;;;;;;5035996;28;20215;-50
2021/03/04 14:25:11;;;;;;;15.20;7.45;;;;;;;;;;5027802;28;20515;-51
2021/03/04 14:27:37;;;;;;;17.58;6.63;;;;;;;;;;5029489;28;20513;-51
2021/03/04 14:30:03;;;;;;;13.98;6.63;;;;;;;;;;5032236;28;20551;-51
2021/03/04 14:32:29;;;;;;;13.13;6.50;;;;;;;;;;5025327;28;20200;-50